< < Back
Terminal Aerodrome Forecast


Current Version              Previous Versions:   1  2  3  4  5  6  7  8  9  

Terminal Aerodrome Forecast

274
FTUS42 KCHS 222339
TAFSAV
TAF
KSAV 222339Z 2300/2324 VRB04KT P6SM SKC
     FM231300 06010KT P6SM FEW045
     FM231700 09014G21KT P6SM SCT045=



Latest METAR

537
SAUS80 KWBC 230100 RRB
MTRSAV
METAR KSAV 230053Z 10007KT 10SM FEW055 SCT200 21/16 A3020 RMK AO2 SLP226
T02110156


USA.gov is the U.S. government's official web portal to all federal, state and local government web resources and services.